sensor_id;sensor_type;location;lat;lon;timestamp;temperature;humidity
23301;DHT22;11819;51.394;12.340;2023-04-21T00:01:35;9.70;95.90
23301;DHT22;11819;51.394;12.340;2023-04-21T00:04:01;9.70;95.90
23301;DHT22;11819;51.394;12.340;2023-04-21T00:06:26;9.70;95.90
23301;DHT22;11819;51.394;12.340;2023-04-21T00:08:52;9.70;96.00
23301;DHT22;11819;51.394;12.340;2023-04-21T00:11:19;9.70;96.00
23301;DHT22;11819;51.394;12.340;2023-04-21T00:13:45;9.70;96.20
23301;DHT22;11819;51.394;12.340;2023-04-21T00:16:10;9.70;96.00
23301;DHT22;11819;51.394;12.340;2023-04-21T00:18:37;9.70;96.00
23301;DHT22;11819;51.394;12.340;2023-04-21T00:21:03;9.70;95.90
23301;DHT22;11819;51.394;12.340;2023-04-21T00:23:28;9.70;95.90
23301;DHT22;11819;51.394;12.340;2023-04-21T00:25:54;9.70;95.90
23301;DHT22;11819;51.394;12.340;2023-04-21T00:28:20;9.70;96.00
23301;DHT22;11819;51.394;12.340;2023-04-21T00:30:46;9.60;96.00
23301;DHT22;11819;51.394;12.340;2023-04-21T00:33:12;9.60;96.00
23301;DHT22;11819;51.394;12.340;2023-04-21T00:35:37;9.60;96.10
23301;DHT22;11819;51.394;12.340;2023-04-21T00:38:03;9.60;96.10
23301;DHT22;11819;51.394;12.340;2023-04-21T00:40:29;9.70;96.10
23301;DHT22;11819;51.394;12.340;2023-04-21T00:42:55;9.70;96.10
23301;DHT22;11819;51.394;12.340;2023-04-21T00:45:21;9.70;96.20
23301;DHT22;11819;51.394;12.340;2023-04-21T00:47:46;9.70;96.20
23301;DHT22;11819;51.394;12.340;2023-04-21T00:50:12;9.70;96.20
23301;DHT22;11819;51.394;12.340;2023-04-21T00:52:39;9.70;96.20
23301;DHT22;11819;51.394;12.340;2023-04-21T00:55:07;9.70;96.30
23301;DHT22;11819;51.394;12.340;2023-04-21T00:57:35;9.70;96.30
23301;DHT22;11819;51.394;12.340;2023-04-21T01:00:01;9.70;96.40
23301;DHT22;11819;51.394;12.340;2023-04-21T01:02:28;9.80;96.40
23301;DHT22;11819;51.394;12.340;2023-04-21T01:04:53;9.80;96.40
23301;DHT22;11819;51.394;12.340;2023-04-21T01:07:19;9.80;96.40
23301;DHT22;11819;51.394;12.340;2023-04-21T01:09:46;9.80;96.30
23301;DHT22;11819;51.394;12.340;2023-04-21T01:12:11;9.80;96.30
23301;DHT22;11819;51.394;12.340;2023-04-21T01:14:39;9.80;96.40
23301;DHT22;11819;51.394;12.340;2023-04-21T01:17:05;9.80;96.40
23301;DHT22;11819;51.394;12.340;2023-04-21T01:19:35;9.80;96.40
23301;DHT22;11819;51.394;12.340;2023-04-21T01:22:02;9.70;96.40
23301;DHT22;11819;51.394;12.340;2023-04-21T01:24:43;9.70;96.40
23301;DHT22;11819;51.394;12.340;2023-04-21T01:27:15;9.70;96.50
23301;DHT22;11819;51.394;12.340;2023-04-21T01:29:42;9.70;96.50
23301;DHT22;11819;51.394;12.340;2023-04-21T01:32:13;9.70;96.50
23301;DHT22;11819;51.394;12.340;2023-04-21T01:34:40;9.70;96.50
23301;DHT22;11819;51.394;12.340;2023-04-21T01:37:15;9.60;96.60
23301;DHT22;11819;51.394;12.340;2023-04-21T01:39:44;9.60;96.70
23301;DHT22;11819;51.394;12.340;2023-04-21T01:42:11;9.70;96.70
23301;DHT22;11819;51.394;12.340;2023-04-21T01:44:37;9.70;96.70
23301;DHT22;11819;51.394;12.340;2023-04-21T01:47:04;9.70;96.70
23301;DHT22;11819;51.394;12.340;2023-04-21T01:49:30;9.70;96.70
23301;DHT22;11819;51.394;12.340;2023-04-21T01:51:56;9.70;96.70
23301;DHT22;11819;51.394;12.340;2023-04-21T01:54:21;9.70;96.70
23301;DHT22;11819;51.394;12.340;2023-04-21T01:56:47;9.60;96.80
23301;DHT22;11819;51.394;12.340;2023-04-21T01:59:14;9.70;96.80
23301;DHT22;11819;51.394;12.340;2023-04-21T02:01:39;9.70;96.80
23301;DHT22;11819;51.394;12.340;2023-04-21T02:04:05;9.70;96.70
23301;DHT22;11819;51.394;12.340;2023-04-21T02:06:31;9.70;96.70
23301;DHT22;11819;51.394;12.340;2023-04-21T02:08:57;9.70;96.70
23301;DHT22;11819;51.394;12.340;2023-04-21T02:11:26;9.70;96.70
23301;DHT22;11819;51.394;12.340;2023-04-21T02:13:53;9.70;96.70
23301;DHT22;11819;51.394;12.340;2023-04-21T02:16:19;9.70;96.80
23301;DHT22;11819;51.394;12.340;2023-04-21T02:18:47;9.80;96.80
23301;DHT22;11819;51.394;12.340;2023-04-21T02:21:13;9.80;96.70
23301;DHT22;11819;51.394;12.340;2023-04-21T02:23:40;9.80;96.70
23301;DHT22;11819;51.394;12.340;2023-04-21T02:26:06;9.80;96.70
23301;DHT22;11819;51.394;12.340;2023-04-21T02:28:32;9.80;96.70
23301;DHT22;11819;51.394;12.340;2023-04-21T02:30:58;9.80;96.70
23301;DHT22;11819;51.394;12.340;2023-04-21T02:33:24;9.80;96.60
23301;DHT22;11819;51.394;12.340;2023-04-21T02:35:50;9.80;96.70
23301;DHT22;11819;51.394;12.340;2023-04-21T02:38:19;9.80;96.60
23301;DHT22;11819;51.394;12.340;2023-04-21T02:40:45;9.70;96.70
23301;DHT22;11819;51.394;12.340;2023-04-21T02:43:13;9.80;96.70
23301;DHT22;11819;51.394;12.340;2023-04-21T02:45:38;9.80;96.70
23301;DHT22;11819;51.394;12.340;2023-04-21T02:48:04;9.80;96.70
23301;DHT22;11819;51.394;12.340;2023-04-21T02:50:29;9.80;96.70
23301;DHT22;11819;51.394;12.340;2023-04-21T02:52:55;9.80;96.60
23301;DHT22;11819;51.394;12.340;2023-04-21T02:55:21;9.70;96.60
23301;DHT22;11819;51.394;12.340;2023-04-21T02:57:47;9.70;96.60
23301;DHT22;11819;51.394;12.340;2023-04-21T03:00:13;9.70;96.60
23301;DHT22;11819;51.394;12.340;2023-04-21T03:02:39;9.70;96.60
23301;DHT22;11819;51.394;12.340;2023-04-21T03:05:07;9.70;96.60
23301;DHT22;11819;51.394;12.340;2023-04-21T03:07:34;9.60;97.00
23301;DHT22;11819;51.394;12.340;2023-04-21T03:10:00;9.60;96.70
23301;DHT22;11819;51.394;12.340;2023-04-21T03:12:26;9.60;96.70
23301;DHT22;11819;51.394;12.340;2023-04-21T03:14:52;9.60;96.70
23301;DHT22;11819;51.394;12.340;2023-04-21T03:17:17;9.60;96.70
23301;DHT22;11819;51.394;12.340;2023-04-21T03:19:43;9.60;96.60
23301;DHT22;11819;51.394;12.340;2023-04-21T03:22:08;9.60;96.60
23301;DHT22;11819;51.394;12.340;2023-04-21T03:24:34;9.50;96.50
23301;DHT22;11819;51.394;12.340;2023-04-21T03:27:00;9.50;96.60
23301;DHT22;11819;51.394;12.340;2023-04-21T03:29:27;9.40;96.60
23301;DHT22;11819;51.394;12.340;2023-04-21T03:31:53;9.40;96.70
23301;DHT22;11819;51.394;12.340;2023-04-21T03:34:19;9.30;96.70
23301;DHT22;11819;51.394;12.340;2023-04-21T03:36:45;9.30;96.70
23301;DHT22;11819;51.394;12.340;2023-04-21T03:39:11;9.30;96.70
23301;DHT22;11819;51.394;12.340;2023-04-21T03:41:37;9.30;96.80
23301;DHT22;11819;51.394;12.340;2023-04-21T03:44:02;9.30;96.70
23301;DHT22;11819;51.394;12.340;2023-04-21T03:46:28;9.20;96.70
23301;DHT22;11819;51.394;12.340;2023-04-21T03:48:54;9.20;96.80
23301;DHT22;11819;51.394;12.340;2023-04-21T03:51:19;9.20;96.80
23301;DHT22;11819;51.394;12.340;2023-04-21T03:53:45;9.20;96.80
23301;DHT22;11819;51.394;12.340;2023-04-21T03:56:11;9.20;96.80
23301;DHT22;11819;51.394;12.340;2023-04-21T03:58:37;9.20;96.70
23301;DHT22;11819;51.394;12.340;2023-04-21T04:01:06;9.20;96.70
23301;DHT22;11819;51.394;12.340;2023-04-21T04:03:32;9.20;96.70
23301;DHT22;11819;51.394;12.340;2023-04-21T04:05:58;9.20;96.70
23301;DHT22;11819;51.394;12.340;2023-04-21T04:08:23;9.20;96.70
23301;DHT22;11819;51.394;12.340;2023-04-21T04:10:49;9.10;96.70
23301;DHT22;11819;51.394;12.340;2023-04-21T04:13:15;9.10;96.60
23301;DHT22;11819;51.394;12.340;2023-04-21T04:15:41;9.10;96.70
23301;DHT22;11819;51.394;12.340;2023-04-21T04:18:06;9.10;97.10
23301;DHT22;11819;51.394;12.340;2023-04-21T04:20:32;9.10;96.70
23301;DHT22;11819;51.394;12.340;2023-04-21T04:22:58;9.10;96.70
23301;DHT22;11819;51.394;12.340;2023-04-21T04:25:24;9.10;96.70
23301;DHT22;11819;51.394;12.340;2023-04-21T04:27:49;9.10;96.80
23301;DHT22;11819;51.394;12.340;2023-04-21T04:30:15;9.20;96.70
23301;DHT22;11819;51.394;12.340;2023-04-21T04:32:41;9.20;96.80
23301;DHT22;11819;51.394;12.340;2023-04-21T04:35:08;9.20;96.80
23301;DHT22;11819;51.394;12.340;2023-04-21T04:37:38;9.20;96.70
23301;DHT22;11819;51.394;12.340;2023-04-21T04:40:06;9.20;96.60
23301;DHT22;11819;51.394;12.340;2023-04-21T04:42:34;9.20;96.60
23301;DHT22;11819;51.394;12.340;2023-04-21T04:45:01;9.20;96.70
23301;DHT22;11819;51.394;12.340;2023-04-21T04:47:27;9.20;96.80
23301;DHT22;11819;51.394;12.340;2023-04-21T04:49:53;9.30;96.80
23301;DHT22;11819;51.394;12.340;2023-04-21T04:52:19;9.20;96.80
23301;DHT22;11819;51.394;12.340;2023-04-21T04:54:45;9.30;96.90
23301;DHT22;11819;51.394;12.340;2023-04-21T04:57:12;9.30;96.80
23301;DHT22;11819;51.394;12.340;2023-04-21T04:59:37;9.30;96.80
23301;DHT22;11819;51.394;12.340;2023-04-21T05:02:06;9.30;96.90
23301;DHT22;11819;51.394;12.340;2023-04-21T05:04:33;9.40;96.90
23301;DHT22;11819;51.394;12.340;2023-04-21T05:06:58;9.40;96.90
23301;DHT22;11819;51.394;12.340;2023-04-21T05:09:24;9.40;96.80
23301;DHT22;11819;51.394;12.340;2023-04-21T05:11:50;9.50;96.90
23301;DHT22;11819;51.394;12.340;2023-04-21T05:14:15;9.50;96.90
23301;DHT22;11819;51.394;12.340;2023-04-21T05:16:44;9.60;97.00
23301;DHT22;11819;51.394;12.340;2023-04-21T05:19:10;9.60;96.90
23301;DHT22;11819;51.394;12.340;2023-04-21T05:21:35;9.60;96.90
23301;DHT22;11819;51.394;12.340;2023-04-21T05:24:01;9.70;96.90
23301;DHT22;11819;51.394;12.340;2023-04-21T05:26:28;9.70;96.90
23301;DHT22;11819;51.394;12.340;2023-04-21T05:28:55;9.70;96.90
23301;DHT22;11819;51.394;12.340;2023-04-21T05:31:23;9.70;96.90
23301;DHT22;11819;51.394;12.340;2023-04-21T05:33:51;9.80;96.90
23301;DHT22;11819;51.394;12.340;2023-04-21T05:36:16;9.80;96.90
23301;DHT22;11819;51.394;12.340;2023-04-21T05:38:43;9.90;96.90
23301;DHT22;11819;51.394;12.340;2023-04-21T05:41:09;10.00;96.90
23301;DHT22;11819;51.394;12.340;2023-04-21T05:43:35;10.00;96.90
23301;DHT22;11819;51.394;12.340;2023-04-21T05:46:01;10.00;96.90
23301;DHT22;11819;51.394;12.340;2023-04-21T05:48:27;10.10;96.90
23301;DHT22;11819;51.394;12.340;2023-04-21T05:50:56;10.10;96.90
23301;DHT22;11819;51.394;12.340;2023-04-21T05:53:23;10.20;96.90
23301;DHT22;11819;51.394;12.340;2023-04-21T05:55:48;10.20;96.90
23301;DHT22;11819;51.394;12.340;2023-04-21T05:58:14;10.20;96.80
23301;DHT22;11819;51.394;12.340;2023-04-21T06:00:40;10.20;96.80
23301;DHT22;11819;51.394;12.340;2023-04-21T06:03:05;10.30;96.80
23301;DHT22;11819;51.394;12.340;2023-04-21T06:05:31;10.30;96.80
23301;DHT22;11819;51.394;12.340;2023-04-21T06:07:57;10.30;97.20
23301;DHT22;11819;51.394;12.340;2023-04-21T06:10:25;10.30;96.80
23301;DHT22;11819;51.394;12.340;2023-04-21T06:12:51;10.40;96.80
23301;DHT22;11819;51.394;12.340;2023-04-21T06:15:16;10.40;96.80
23301;DHT22;11819;51.394;12.340;2023-04-21T06:17:42;10.50;97.20
23301;DHT22;11819;51.394;12.340;2023-04-21T06:20:08;10.50;96.80
23301;DHT22;11819;51.394;12.340;2023-04-21T06:22:34;10.50;96.80
23301;DHT22;11819;51.394;12.340;2023-04-21T06:24:59;10.60;96.80
23301;DHT22;11819;51.394;12.340;2023-04-21T06:27:25;10.60;96.80
23301;DHT22;11819;51.394;12.340;2023-04-21T06:29:53;10.60;96.80
23301;DHT22;11819;51.394;12.340;2023-04-21T06:32:20;10.70;96.80
23301;DHT22;11819;51.394;12.340;2023-04-21T06:34:45;10.80;96.80
23301;DHT22;11819;51.394;12.340;2023-04-21T06:37:11;10.80;96.80
23301;DHT22;11819;51.394;12.340;2023-04-21T06:39:38;10.80;96.80
23301;DHT22;11819;51.394;12.340;2023-04-21T06:42:03;10.90;97.10
23301;DHT22;11819;51.394;12.340;2023-04-21T06:44:29;10.90;96.70
23301;DHT22;11819;51.394;12.340;2023-04-21T06:46:56;11.00;96.60
23301;DHT22;11819;51.394;12.340;2023-04-21T06:49:22;11.00;96.50
23301;DHT22;11819;51.394;12.340;2023-04-21T06:51:47;11.00;96.60
23301;DHT22;11819;51.394;12.340;2023-04-21T06:54:13;11.10;96.60
23301;DHT22;11819;51.394;12.340;2023-04-21T06:56:38;11.10;96.50
23301;DHT22;11819;51.394;12.340;2023-04-21T06:59:05;11.20;96.50
23301;DHT22;11819;51.394;12.340;2023-04-21T07:01:31;11.20;96.50
23301;DHT22;11819;51.394;12.340;2023-04-21T07:03:56;11.30;96.50
23301;DHT22;11819;51.394;12.340;2023-04-21T07:06:22;11.30;96.40
23301;DHT22;11819;51.394;12.340;2023-04-21T07:08:47;11.40;96.70
23301;DHT22;11819;51.394;12.340;2023-04-21T07:11:14;11.50;96.40
23301;DHT22;11819;51.394;12.340;2023-04-21T07:13:40;11.50;96.40
23301;DHT22;11819;51.394;12.340;2023-04-21T07:16:05;11.50;96.30
23301;DHT22;11819;51.394;12.340;2023-04-21T07:18:31;11.60;96.30
23301;DHT22;11819;51.394;12.340;2023-04-21T07:20:59;11.60;96.20
23301;DHT22;11819;51.394;12.340;2023-04-21T07:23:25;11.70;96.10
23301;DHT22;11819;51.394;12.340;2023-04-21T07:25:50;11.70;95.90
23301;DHT22;11819;51.394;12.340;2023-04-21T07:28:17;11.80;95.70
23301;DHT22;11819;51.394;12.340;2023-04-21T07:30:43;11.80;95.60
23301;DHT22;11819;51.394;12.340;2023-04-21T07:33:08;11.80;95.50
23301;DHT22;11819;51.394;12.340;2023-04-21T07:35:34;11.80;95.40
23301;DHT22;11819;51.394;12.340;2023-04-21T07:38:01;11.90;95.40
23301;DHT22;11819;51.394;12.340;2023-04-21T07:40:26;11.90;95.40
23301;DHT22;11819;51.394;12.340;2023-04-21T07:42:52;11.90;95.30
23301;DHT22;11819;51.394;12.340;2023-04-21T07:45:18;12.00;95.30
23301;DHT22;11819;51.394;12.340;2023-04-21T07:47:43;12.00;95.30
23301;DHT22;11819;51.394;12.340;2023-04-21T07:50:10;12.10;95.30
23301;DHT22;11819;51.394;12.340;2023-04-21T07:52:38;12.10;95.20
23301;DHT22;11819;51.394;12.340;2023-04-21T07:55:05;12.20;95.10
23301;DHT22;11819;51.394;12.340;2023-04-21T07:57:30;12.20;95.10
23301;DHT22;11819;51.394;12.340;2023-04-21T07:59:58;12.20;95.10
23301;DHT22;11819;51.394;12.340;2023-04-21T08:02:24;12.30;94.90
23301;DHT22;11819;51.394;12.340;2023-04-21T08:04:49;12.30;94.70
23301;DHT22;11819;51.394;12.340;2023-04-21T08:07:15;12.40;94.90
23301;DHT22;11819;51.394;12.340;2023-04-21T08:09:42;12.40;94.30
23301;DHT22;11819;51.394;12.340;2023-04-21T08:12:08;12.40;94.20
23301;DHT22;11819;51.394;12.340;2023-04-21T08:14:33;12.50;94.10
23301;DHT22;11819;51.394;12.340;2023-04-21T08:16:59;12.60;94.00
23301;DHT22;11819;51.394;12.340;2023-04-21T08:19:25;12.60;93.80
23301;DHT22;11819;51.394;12.340;2023-04-21T08:21:50;12.60;93.60
23301;DHT22;11819;51.394;12.340;2023-04-21T08:24:16;12.70;93.50
23301;DHT22;11819;51.394;12.340;2023-04-21T08:26:41;12.80;93.50
23301;DHT22;11819;51.394;12.340;2023-04-21T08:29:07;12.80;93.30
23301;DHT22;11819;51.394;12.340;2023-04-21T08:31:35;12.90;93.20
23301;DHT22;11819;51.394;12.340;2023-04-21T08:34:01;12.90;93.10
23301;DHT22;11819;51.394;12.340;2023-04-21T08:36:27;12.90;93.00
23301;DHT22;11819;51.394;12.340;2023-04-21T08:38:53;13.00;92.90
23301;DHT22;11819;51.394;12.340;2023-04-21T08:41:18;13.10;92.60
23301;DHT22;11819;51.394;12.340;2023-04-21T08:43:44;13.10;92.50
23301;DHT22;11819;51.394;12.340;2023-04-21T08:46:11;13.20;92.20
23301;DHT22;11819;51.394;12.340;2023-04-21T08:48:38;13.30;92.00
23301;DHT22;11819;51.394;12.340;2023-04-21T08:51:07;13.40;91.90
23301;DHT22;11819;51.394;12.340;2023-04-21T08:53:36;13.40;91.90
23301;DHT22;11819;51.394;12.340;2023-04-21T08:56:02;13.50;91.90
23301;DHT22;11819;51.394;12.340;2023-04-21T08:58:28;13.60;91.60
23301;DHT22;11819;51.394;12.340;2023-04-21T09:00:54;13.60;91.20
23301;DHT22;11819;51.394;12.340;2023-04-21T09:03:24;13.70;91.00
23301;DHT22;11819;51.394;12.340;2023-04-21T09:06:04;13.70;90.80
23301;DHT22;11819;51.394;12.340;2023-04-21T09:08:30;13.80;90.80
23301;DHT22;11819;51.394;12.340;2023-04-21T09:10:57;13.80;90.40
23301;DHT22;11819;51.394;12.340;2023-04-21T09:13:36;13.90;90.10
23301;DHT22;11819;51.394;12.340;2023-04-21T09:16:04;13.90;90.10
23301;DHT22;11819;51.394;12.340;2023-04-21T09:18:33;14.00;90.00
23301;DHT22;11819;51.394;12.340;2023-04-21T09:21:09;14.10;89.30
23301;DHT22;11819;51.394;12.340;2023-04-21T09:23:50;14.20;88.20
23301;DHT22;11819;51.394;12.340;2023-04-21T09:26:18;14.20;87.40
23301;DHT22;11819;51.394;12.340;2023-04-21T09:28:45;14.30;86.80
23301;DHT22;11819;51.394;12.340;2023-04-21T09:31:22;14.30;86.30
23301;DHT22;11819;51.394;12.340;2023-04-21T09:33:55;14.40;86.30
23301;DHT22;11819;51.394;12.340;2023-04-21T09:36:25;14.50;86.70
23301;DHT22;11819;51.394;12.340;2023-04-21T09:39:00;14.50;86.50
23301;DHT22;11819;51.394;12.340;2023-04-21T09:41:26;14.60;85.90
23301;DHT22;11819;51.394;12.340;2023-04-21T09:43:52;14.60;86.30
23301;DHT22;11819;51.394;12.340;2023-04-21T09:46:19;14.70;85.90
23301;DHT22;11819;51.394;12.340;2023-04-21T09:48:47;14.70;85.00
23301;DHT22;11819;51.394;12.340;2023-04-21T09:51:14;14.80;84.90
23301;DHT22;11819;51.394;12.340;2023-04-21T09:53:41;14.80;85.20
23301;DHT22;11819;51.394;12.340;2023-04-21T09:56:11;14.90;83.50
23301;DHT22;11819;51.394;12.340;2023-04-21T09:58:47;15.00;83.30
23301;DHT22;11819;51.394;12.340;2023-04-21T10:01:16;15.10;84.20
23301;DHT22;11819;51.394;12.340;2023-04-21T10:03:43;15.20;81.40
23301;DHT22;11819;51.394;12.340;2023-04-21T10:06:10;15.30;79.30
23301;DHT22;11819;51.394;12.340;2023-04-21T10:08:36;15.30;78.10
23301;DHT22;11819;51.394;12.340;2023-04-21T10:11:03;15.40;77.80
23301;DHT22;11819;51.394;12.340;2023-04-21T10:13:29;15.50;77.40
23301;DHT22;11819;51.394;12.340;2023-04-21T10:16:08;15.50;75.60
23301;DHT22;11819;51.394;12.340;2023-04-21T10:18:35;15.60;74.80
23301;DHT22;11819;51.394;12.340;2023-04-21T10:21:05;15.60;74.90
23301;DHT22;11819;51.394;12.340;2023-04-21T10:23:51;15.70;75.10
23301;DHT22;11819;51.394;12.340;2023-04-21T10:26:26;15.80;74.00
23301;DHT22;11819;51.394;12.340;2023-04-21T10:29:04;15.90;73.50
23301;DHT22;11819;51.394;12.340;2023-04-21T10:31:48;15.90;71.70
23301;DHT22;11819;51.394;12.340;2023-04-21T10:34:37;16.00;71.80
23301;DHT22;11819;51.394;12.340;2023-04-21T10:37:08;16.00;71.90
23301;DHT22;11819;51.394;12.340;2023-04-21T10:39:44;16.00;71.60
23301;DHT22;11819;51.394;12.340;2023-04-21T10:44:44;16.20;70.70
23301;DHT22;11819;51.394;12.340;2023-04-21T10:47:45;16.20;70.20
23301;DHT22;11819;51.394;12.340;2023-04-21T10:50:19;16.30;70.80
23301;DHT22;11819;51.394;12.340;2023-04-21T10:55:28;16.30;71.70
23301;DHT22;11819;51.394;12.340;2023-04-21T10:57:55;16.30;71.30
23301;DHT22;11819;51.394;12.340;2023-04-21T11:00:23;16.40;70.80
23301;DHT22;11819;51.394;12.340;2023-04-21T11:02:55;16.40;69.70
23301;DHT22;11819;51.394;12.340;2023-04-21T11:05:48;16.40;69.60
23301;DHT22;11819;51.394;12.340;2023-04-21T11:08:14;16.40;68.20
23301;DHT22;11819;51.394;12.340;2023-04-21T11:10:49;16.50;68.60
23301;DHT22;11819;51.394;12.340;2023-04-21T11:13:15;16.70;69.40
23301;DHT22;11819;51.394;12.340;2023-04-21T11:15:41;16.70;70.00
23301;DHT22;11819;51.394;12.340;2023-04-21T11:18:07;16.80;69.80
23301;DHT22;11819;51.394;12.340;2023-04-21T11:20:39;16.80;70.10
23301;DHT22;11819;51.394;12.340;2023-04-21T11:23:05;16.90;70.30
23301;DHT22;11819;51.394;12.340;2023-04-21T11:25:31;17.00;70.20
23301;DHT22;11819;51.394;12.340;2023-04-21T11:27:57;17.10;70.10
23301;DHT22;11819;51.394;12.340;2023-04-21T11:30:34;17.10;70.10
23301;DHT22;11819;51.394;12.340;2023-04-21T11:33:00;17.20;69.70
23301;DHT22;11819;51.394;12.340;2023-04-21T11:35:26;17.30;68.50
23301;DHT22;11819;51.394;12.340;2023-04-21T11:37:54;17.40;68.00
23301;DHT22;11819;51.394;12.340;2023-04-21T11:40:20;17.60;67.70
23301;DHT22;11819;51.394;12.340;2023-04-21T11:42:46;17.60;65.50
23301;DHT22;11819;51.394;12.340;2023-04-21T11:45:16;17.80;65.20
23301;DHT22;11819;51.394;12.340;2023-04-21T11:47:44;17.90;64.50
23301;DHT22;11819;51.394;12.340;2023-04-21T11:50:09;18.00;64.60
23301;DHT22;11819;51.394;12.340;2023-04-21T11:52:36;18.10;64.80
23301;DHT22;11819;51.394;12.340;2023-04-21T11:55:05;18.20;63.90
23301;DHT22;11819;51.394;12.340;2023-04-21T11:57:32;18.30;62.10
23301;DHT22;11819;51.394;12.340;2023-04-21T12:00:02;18.40;61.60
23301;DHT22;11819;51.394;12.340;2023-04-21T12:02:32;18.50;62.90
23301;DHT22;11819;51.394;12.340;2023-04-21T12:07:33;18.60;60.70
23301;DHT22;11819;51.394;12.340;2023-04-21T12:10:00;18.80;60.10
23301;DHT22;11819;51.394;12.340;2023-04-21T12:12:26;18.90;60.30
23301;DHT22;11819;51.394;12.340;2023-04-21T12:14:52;19.10;59.90
23301;DHT22;11819;51.394;12.340;2023-04-21T12:17:18;19.30;59.30
23301;DHT22;11819;51.394;12.340;2023-04-21T12:19:43;19.50;58.80
23301;DHT22;11819;51.394;12.340;2023-04-21T12:22:14;19.60;58.90
23301;DHT22;11819;51.394;12.340;2023-04-21T12:24:42;19.70;58.80
23301;DHT22;11819;51.394;12.340;2023-04-21T12:27:08;20.00;58.40
23301;DHT22;11819;51.394;12.340;2023-04-21T12:29:34;20.10;58.00
23301;DHT22;11819;51.394;12.340;2023-04-21T12:32:03;20.30;58.00
23301;DHT22;11819;51.394;12.340;2023-04-21T12:34:29;20.60;56.70
23301;DHT22;11819;51.394;12.340;2023-04-21T12:36:55;20.70;56.30
23301;DHT22;11819;51.394;12.340;2023-04-21T12:39:21;20.90;56.10
23301;DHT22;11819;51.394;12.340;2023-04-21T12:41:47;21.00;55.30
23301;DHT22;11819;51.394;12.340;2023-04-21T12:44:13;20.80;55.00
23301;DHT22;11819;51.394;12.340;2023-04-21T12:46:40;20.80;54.90
23301;DHT22;11819;51.394;12.340;2023-04-21T12:49:06;21.00;54.80
23301;DHT22;11819;51.394;12.340;2023-04-21T12:51:33;21.20;53.20
23301;DHT22;11819;51.394;12.340;2023-04-21T12:54:02;21.40;53.40
23301;DHT22;11819;51.394;12.340;2023-04-21T12:56:28;21.70;52.70
23301;DHT22;11819;51.394;12.340;2023-04-21T12:58:54;22.00;51.20
23301;DHT22;11819;51.394;12.340;2023-04-21T13:01:21;22.30;52.20
23301;DHT22;11819;51.394;12.340;2023-04-21T13:03:46;22.50;51.30
23301;DHT22;11819;51.394;12.340;2023-04-21T13:06:12;22.80;50.90
23301;DHT22;11819;51.394;12.340;2023-04-21T13:08:37;23.10;49.80
23301;DHT22;11819;51.394;12.340;2023-04-21T13:11:03;23.40;50.10
23301;DHT22;11819;51.394;12.340;2023-04-21T13:13:30;23.60;49.60
23301;DHT22;11819;51.394;12.340;2023-04-21T13:15:55;23.70;47.90
23301;DHT22;11819;51.394;12.340;2023-04-21T13:18:21;23.70;48.20
23301;DHT22;11819;51.394;12.340;2023-04-21T13:20:47;23.80;48.10
23301;DHT22;11819;51.394;12.340;2023-04-21T13:23:14;24.00;47.90
23301;DHT22;11819;51.394;12.340;2023-04-21T13:25:40;24.00;45.50
23301;DHT22;11819;51.394;12.340;2023-04-21T13:28:06;24.00;46.20
23301;DHT22;11819;51.394;12.340;2023-04-21T13:30:33;24.00;47.40
23301;DHT22;11819;51.394;12.340;2023-04-21T13:32:59;23.80;47.30
23301;DHT22;11819;51.394;12.340;2023-04-21T13:35:25;23.50;47.30
23301;DHT22;11819;51.394;12.340;2023-04-21T13:37:50;23.50;48.00
23301;DHT22;11819;51.394;12.340;2023-04-21T13:40:16;23.80;47.80
23301;DHT22;11819;51.394;12.340;2023-04-21T13:42:42;24.10;48.10
23301;DHT22;11819;51.394;12.340;2023-04-21T13:45:08;24.30;47.40
23301;DHT22;11819;51.394;12.340;2023-04-21T13:47:34;24.60;46.80
23301;DHT22;11819;51.394;12.340;2023-04-21T13:50:00;24.80;45.90
23301;DHT22;11819;51.394;12.340;2023-04-21T13:52:27;25.00;45.40
23301;DHT22;11819;51.394;12.340;2023-04-21T13:54:52;25.20;45.50
23301;DHT22;11819;51.394;12.340;2023-04-21T13:57:20;25.40;44.40
23301;DHT22;11819;51.394;12.340;2023-04-21T13:59:46;25.70;43.90
23301;DHT22;11819;51.394;12.340;2023-04-21T14:02:12;25.80;43.70
23301;DHT22;11819;51.394;12.340;2023-04-21T14:04:37;26.00;43.60
23301;DHT22;11819;51.394;12.340;2023-04-21T14:07:04;26.10;42.90
23301;DHT22;11819;51.394;12.340;2023-04-21T14:09:30;26.30;43.00
23301;DHT22;11819;51.394;12.340;2023-04-21T14:11:57;26.40;42.70
23301;DHT22;11819;51.394;12.340;2023-04-21T14:14:22;26.60;42.60
23301;DHT22;11819;51.394;12.340;2023-04-21T14:16:48;26.90;42.50
23301;DHT22;11819;51.394;12.340;2023-04-21T14:19:14;27.00;41.10
23301;DHT22;11819;51.394;12.340;2023-04-21T14:21:41;27.00;40.60
23301;DHT22;11819;51.394;12.340;2023-04-21T14:24:06;26.80;40.80
23301;DHT22;11819;51.394;12.340;2023-04-21T14:26:32;26.50;42.10
23301;DHT22;11819;51.394;12.340;2023-04-21T14:28:58;26.60;42.50
23301;DHT22;11819;51.394;12.340;2023-04-21T14:31:27;26.80;42.10
23301;DHT22;11819;51.394;12.340;2023-04-21T14:33:53;26.90;40.80
23301;DHT22;11819;51.394;12.340;2023-04-21T14:36:20;27.10;40.50
23301;DHT22;11819;51.394;12.340;2023-04-21T14:38:46;27.30;40.60
23301;DHT22;11819;51.394;12.340;2023-04-21T14:41:11;27.60;41.10
23301;DHT22;11819;51.394;12.340;2023-04-21T14:43:37;27.80;40.30
23301;DHT22;11819;51.394;12.340;2023-04-21T14:46:03;28.00;39.60
23301;DHT22;11819;51.394;12.340;2023-04-21T14:48:30;28.20;39.00
23301;DHT22;11819;51.394;12.340;2023-04-21T14:50:56;28.30;39.00
23301;DHT22;11819;51.394;12.340;2023-04-21T14:53:22;28.30;39.00
23301;DHT22;11819;51.394;12.340;2023-04-21T14:55:48;28.10;39.00
23301;DHT22;11819;51.394;12.340;2023-04-21T14:58:14;27.80;38.70
23301;DHT22;11819;51.394;12.340;2023-04-21T15:00:41;27.60;38.40
23301;DHT22;11819;51.394;12.340;2023-04-21T15:03:07;27.50;38.80
23301;DHT22;11819;51.394;12.340;2023-04-21T15:05:33;27.60;39.00
23301;DHT22;11819;51.394;12.340;2023-04-21T15:08:00;27.70;38.80
23301;DHT22;11819;51.394;12.340;2023-04-21T15:10:25;27.80;38.50
23301;DHT22;11819;51.394;12.340;2023-04-21T15:12:51;27.90;38.80
23301;DHT22;11819;51.394;12.340;2023-04-21T15:15:17;27.90;38.40
23301;DHT22;11819;51.394;12.340;2023-04-21T15:17:43;28.00;38.90
23301;DHT22;11819;51.394;12.340;2023-04-21T15:20:09;28.20;39.00
23301;DHT22;11819;51.394;12.340;2023-04-21T15:22:35;28.30;38.70
23301;DHT22;11819;51.394;12.340;2023-04-21T15:25:00;28.30;38.00
23301;DHT22;11819;51.394;12.340;2023-04-21T15:27:26;28.20;37.80
23301;DHT22;11819;51.394;12.340;2023-04-21T15:29:52;28.00;37.80